Kezdőlap
METAR-TAF:

METAR-TAF

Repülőterek :

Nanking-Lukou nemzetközi repülőtér

Nanking, Kína

földrajzi szélesség: 32-00N, földrajzi hosszúság: 118-48E, magasság: 12 m

Jelenlegi meteorológiai megfigyelések

A jelentés 34 perccel ezelõtt készült, 18:00 UTC
Különbözõ irányokból fújó szél 2 kt
Hőmérséklet 25°C
Páratartalom 100%
Légköri nyomás 1005 hPa
Látótávolság: 2500 m
Párásság

METAR: ZSNJ 071800Z VRB01MPS 2500 BR NSC 25/25 Q1005 NOSIG

Idő: 02:34 (18:34 UTC)

Előrejelzés

A jelentés 3 órával és 29 perccel ezelõtt készült, 15:05 UTC
Az előrejelzés 07-én 18 óra UTC és 08-én 18 óra UTC között érvényes
Kelet-északkeleti szél 6 kt
Látótávolság: 3000 m
Szórványos felhőzet 2000 lábon
Párásság

TAF: ZSNJ 071505Z 0718/0818 06003MPS 3000 BR SCT020 TX30/0806Z TN24/0722Z

Meteorológiai megfigyelések és előrejelzések több, mint 4000 repülőtéren (METAR és TAF jelentéseket).

A térképen piros és sárga pontok jelzik az elérhető meteorológiai állomásokat.

Mozgassa az egeret a pont fölött, hogy megjelenjen az állomás neve.

Azután kattintson az időjárási megfigyelések és előrejelzések megtekintéséhez.

A térkép megváltoztatása: kattintson a fekete keresztel jelölt zöld gombra ráközelítéshez, a vonallal jelölt zöld gombra távolításhoz, vagy a zöld nyilakra a szomszédos térképek eléréséhez.


METAR-TAF: